createdAt,value
2018-05-24T00:02:19.046Z,15.67
2018-05-24T00:04:46.431Z,15.23
2018-05-24T00:07:13.822Z,15.00
2018-05-24T00:09:41.218Z,15.57
2018-05-24T00:12:08.639Z,15.07
2018-05-24T00:14:36.037Z,15.77
2018-05-24T00:17:03.424Z,15.43
2018-05-24T00:19:30.818Z,15.40
2018-05-24T00:21:58.219Z,15.73
2018-05-24T00:24:25.646Z,16.00
2018-05-24T00:26:52.991Z,15.20
2018-05-24T00:29:20.378Z,15.53
2018-05-24T00:31:47.779Z,15.23
2018-05-24T00:34:15.171Z,14.97
2018-05-24T00:36:42.559Z,15.27
2018-05-24T00:39:10.035Z,15.37
2018-05-24T00:41:37.634Z,14.33
2018-05-24T00:44:05.021Z,14.60
2018-05-24T00:46:32.420Z,15.17
2018-05-24T00:48:59.807Z,14.87
2018-05-24T00:51:27.214Z,15.77
2018-05-24T00:53:54.594Z,14.53
2018-05-24T00:56:21.987Z,15.50
2018-05-24T00:58:49.378Z,15.33
2018-05-24T01:01:16.771Z,16.57
2018-05-24T01:03:44.166Z,14.67
2018-05-24T01:06:11.561Z,15.37
2018-05-24T01:08:38.946Z,13.87
2018-05-24T01:11:06.339Z,14.43
2018-05-24T01:13:33.780Z,14.60
2018-05-24T01:16:01.175Z,15.03
2018-05-24T01:18:28.562Z,14.20
2018-05-24T01:20:55.948Z,14.73
2018-05-24T01:23:23.351Z,15.27
2018-05-24T01:25:50.739Z,13.70
2018-05-24T01:28:18.135Z,14.33
2018-05-24T01:30:45.521Z,14.93
2018-05-24T01:33:12.916Z,14.20
2018-05-24T01:35:40.299Z,14.40
2018-05-24T01:38:07.694Z,13.97
2018-05-24T01:40:35.088Z,13.80
2018-05-24T01:43:02.486Z,14.53
2018-05-24T01:45:29.880Z,14.30
2018-05-24T01:47:57.270Z,14.10
2018-05-24T01:50:24.671Z,14.20
2018-05-24T01:52:52.059Z,13.97
2018-05-24T01:55:19.455Z,14.90
2018-05-24T01:57:46.966Z,13.77
2018-05-24T02:00:14.516Z,14.53
2018-05-24T02:02:41.895Z,13.60
2018-05-24T02:05:09.294Z,13.63
2018-05-24T02:07:36.684Z,14.60
2018-05-24T02:10:04.063Z,14.83
2018-05-24T02:12:31.455Z,14.53
2018-05-24T02:14:58.855Z,14.47
2018-05-24T02:17:26.244Z,13.97
2018-05-24T02:19:53.635Z,14.13
2018-05-24T02:22:21.027Z,15.00
2018-05-24T02:24:48.411Z,15.20
2018-05-24T02:27:15.812Z,14.80
2018-05-24T02:29:43.199Z,14.20
2018-05-24T02:32:11.039Z,14.30
2018-05-24T02:34:38.428Z,13.80
2018-05-24T02:37:05.811Z,15.30
2018-05-24T02:39:33.207Z,14.33
2018-05-24T02:42:00.595Z,14.00
2018-05-24T02:44:28.402Z,13.33
2018-05-24T02:46:55.792Z,14.37
2018-05-24T02:49:23.191Z,14.60
2018-05-24T02:51:50.574Z,13.90
2018-05-24T02:54:17.976Z,14.30
2018-05-24T02:56:45.373Z,12.93
2018-05-24T02:59:12.769Z,13.47
2018-05-24T03:01:40.239Z,12.83
2018-05-24T03:04:07.564Z,13.97
2018-05-24T03:06:35.167Z,13.13
2018-05-24T03:09:02.550Z,13.10
2018-05-24T03:11:29.950Z,13.20
2018-05-24T03:13:57.531Z,13.50
2018-05-24T03:16:24.935Z,12.43
2018-05-24T03:18:52.314Z,13.33
2018-05-24T03:21:19.698Z,13.33
2018-05-24T03:23:47.087Z,14.23
2018-05-24T03:26:14.475Z,12.90
2018-05-24T03:28:41.871Z,13.00
2018-05-24T03:31:09.256Z,13.13
2018-05-24T03:33:36.659Z,13.20
2018-05-24T03:36:04.043Z,12.80
2018-05-24T03:38:31.443Z,12.87
2018-05-24T03:40:58.827Z,12.37
2018-05-24T03:43:26.214Z,12.60
2018-05-24T03:45:53.602Z,12.87
2018-05-24T03:48:21.011Z,12.80
2018-05-24T03:50:48.413Z,12.10
2018-05-24T03:53:15.799Z,12.73
2018-05-24T03:55:43.193Z,13.17
2018-05-24T03:58:10.582Z,12.57
2018-05-24T04:00:49.816Z,12.30
2018-05-24T04:03:28.982Z,12.53
2018-05-24T04:05:56.375Z,11.97
2018-05-24T04:08:23.756Z,12.20
2018-05-24T04:10:51.158Z,11.70
2018-05-24T04:13:18.557Z,11.27
2018-05-24T04:15:45.946Z,12.33
2018-05-24T04:18:13.338Z,11.83
2018-05-24T04:20:40.732Z,12.70
2018-05-24T04:23:08.166Z,12.27
2018-05-24T04:25:35.532Z,13.30
2018-05-24T04:28:02.914Z,12.20
2018-05-24T04:30:30.310Z,11.27
2018-05-24T04:32:57.745Z,11.70
2018-05-24T04:35:25.094Z,11.30
2018-05-24T04:37:52.486Z,11.87
2018-05-24T04:40:19.878Z,11.97
2018-05-24T04:42:47.278Z,12.30
2018-05-24T04:45:14.658Z,10.70
2018-05-24T04:47:42.059Z,11.67
2018-05-24T04:50:09.454Z,12.00
2018-05-24T04:52:36.843Z,12.43
2018-05-24T04:55:04.231Z,12.90
2018-05-24T04:57:31.623Z,13.00
2018-05-24T04:59:59.023Z,12.37
2018-05-24T05:02:26.421Z,12.80
2018-05-24T05:04:53.810Z,12.80
2018-05-24T05:07:21.203Z,12.93
2018-05-24T05:09:48.593Z,12.63
2018-05-24T05:12:15.979Z,12.40
2018-05-24T05:14:43.457Z,12.70
2018-05-24T05:17:10.792Z,13.10
2018-05-24T05:19:38.251Z,12.63
2018-05-24T05:22:05.587Z,13.83
2018-05-24T05:24:32.986Z,14.00
2018-05-24T05:27:00.390Z,13.07
2018-05-24T05:29:27.776Z,12.70
2018-05-24T05:31:55.162Z,12.70
2018-05-24T05:34:22.555Z,14.10
2018-05-24T05:36:49.939Z,13.77
2018-05-24T05:39:17.339Z,14.90
2018-05-24T05:41:44.719Z,14.67
2018-05-24T05:44:12.110Z,14.40
2018-05-24T05:46:39.500Z,14.00
2018-05-24T05:49:06.890Z,14.57
2018-05-24T05:51:34.279Z,15.40
2018-05-24T05:54:01.664Z,14.30
2018-05-24T05:56:29.057Z,14.10
2018-05-24T05:58:56.500Z,14.40
2018-05-24T06:01:23.915Z,14.00
2018-05-24T06:03:51.315Z,14.77
2018-05-24T06:06:18.711Z,14.27
2018-05-24T06:08:46.105Z,14.73
2018-05-24T06:11:13.500Z,14.90
2018-05-24T06:13:40.887Z,13.60
2018-05-24T06:16:08.266Z,13.80
2018-05-24T06:18:35.668Z,13.53
2018-05-24T06:21:03.063Z,13.83
2018-05-24T06:23:30.459Z,14.00
2018-05-24T06:25:57.850Z,14.73
2018-05-24T06:28:25.544Z,14.13
2018-05-24T06:30:52.897Z,14.93
2018-05-24T06:33:20.293Z,14.43
2018-05-24T06:35:47.682Z,16.20
2018-05-24T06:38:15.070Z,15.80
2018-05-24T06:40:42.470Z,14.83
2018-05-24T06:43:09.863Z,14.87
2018-05-24T06:45:37.262Z,14.37
2018-05-24T06:48:04.666Z,16.57
2018-05-24T06:50:32.163Z,17.50
2018-05-24T06:52:59.548Z,16.97
2018-05-24T06:55:26.951Z,16.97
2018-05-24T06:57:54.338Z,16.60
2018-05-24T07:00:21.731Z,17.97
2018-05-24T07:02:49.122Z,16.93
2018-05-24T07:05:16.511Z,17.13
2018-05-24T07:07:43.911Z,17.13
2018-05-24T07:10:11.299Z,18.30
2018-05-24T07:12:38.702Z,16.00
2018-05-24T07:15:06.083Z,17.80
2018-05-24T07:17:33.515Z,15.90
2018-05-24T07:20:00.938Z,16.17
2018-05-24T07:22:28.783Z,16.47
2018-05-24T07:24:56.174Z,17.90
2018-05-24T07:27:24.764Z,17.63
2018-05-24T07:29:52.143Z,17.40
2018-05-24T07:32:19.535Z,17.00
2018-05-24T07:34:47.010Z,17.17
2018-05-24T07:37:14.399Z,17.30
2018-05-24T07:39:41.805Z,17.77
2018-05-24T07:42:09.178Z,18.03
2018-05-24T07:44:36.580Z,20.53
2018-05-24T07:47:03.979Z,19.57
2018-05-24T07:49:31.377Z,17.40
2018-05-24T07:51:58.768Z,16.77
2018-05-24T07:54:26.163Z,16.70
2018-05-24T07:56:53.550Z,18.67
2018-05-24T07:59:20.955Z,17.50
2018-05-24T08:01:48.346Z,18.20
2018-05-24T08:04:15.739Z,17.07
2018-05-24T08:06:43.135Z,18.20
2018-05-24T08:09:10.528Z,15.83
2018-05-24T08:11:37.918Z,18.03
2018-05-24T08:14:05.316Z,17.63
2018-05-24T08:16:32.703Z,19.93
2018-05-24T08:19:00.099Z,19.07
2018-05-24T08:21:27.488Z,16.77
2018-05-24T08:23:55.182Z,18.33
2018-05-24T08:26:22.572Z,17.37
2018-05-24T08:28:49.962Z,16.57
2018-05-24T08:31:17.358Z,17.57
2018-05-24T08:33:44.738Z,17.90
2018-05-24T08:36:12.143Z,18.07
2018-05-24T08:38:39.530Z,17.97
2018-05-24T08:41:06.923Z,18.60
2018-05-24T08:43:34.311Z,17.40
2018-05-24T08:46:02.095Z,17.10
2018-05-24T08:48:29.483Z,17.50
2018-05-24T08:50:56.887Z,18.90
2018-05-24T08:53:24.464Z,16.13
2018-05-24T08:55:51.724Z,16.70
2018-05-24T08:58:19.115Z,18.70
2018-05-24T09:00:46.511Z,17.30
2018-05-24T09:03:13.894Z,18.67
2018-05-24T09:05:41.290Z,15.43
2018-05-24T09:08:08.686Z,18.20
2018-05-24T09:10:36.074Z,16.37
2018-05-24T09:13:03.478Z,18.80
2018-05-24T09:15:30.879Z,17.33
2018-05-24T09:17:58.270Z,17.47
2018-05-24T09:20:25.659Z,17.60
2018-05-24T09:22:53.103Z,18.63
2018-05-24T09:25:20.503Z,17.57
2018-05-24T09:27:47.887Z,17.60
2018-05-24T09:30:15.287Z,19.03
2018-05-24T09:32:42.674Z,18.97
2018-05-24T09:35:10.064Z,19.60
2018-05-24T09:37:37.467Z,18.00
2018-05-24T09:40:04.855Z,17.93
2018-05-24T09:42:32.258Z,17.93
2018-05-24T09:44:59.747Z,18.13
2018-05-24T09:47:27.147Z,18.40
2018-05-24T09:49:54.537Z,18.70
2018-05-24T09:52:21.962Z,17.90
2018-05-24T09:54:49.363Z,18.30
2018-05-24T09:57:16.758Z,19.27
2018-05-24T09:59:44.157Z,17.60
2018-05-24T10:02:11.738Z,17.80
2018-05-24T10:04:39.505Z,18.10
2018-05-24T10:07:06.879Z,18.30
2018-05-24T10:09:34.270Z,18.20
2018-05-24T10:12:01.660Z,19.00
2018-05-24T10:14:29.059Z,18.77
2018-05-24T10:16:56.507Z,17.97
2018-05-24T10:19:23.883Z,19.03
2018-05-24T10:21:51.335Z,18.37
2018-05-24T10:24:18.708Z,18.73
2018-05-24T10:26:46.099Z,18.53
2018-05-24T10:29:13.496Z,18.60
2018-05-24T10:31:40.926Z,18.50
2018-05-24T10:34:08.314Z,20.60
2018-05-24T10:36:35.707Z,19.17
2018-05-24T10:39:03.097Z,17.73
2018-05-24T10:41:30.492Z,18.20
2018-05-24T10:43:57.883Z,19.30
2018-05-24T10:46:25.282Z,19.50
2018-05-24T10:48:52.670Z,18.77
2018-05-24T10:51:20.099Z,18.70
2018-05-24T10:53:47.499Z,18.30
2018-05-24T10:56:14.887Z,18.17
2018-05-24T10:58:42.282Z,18.83
2018-05-24T11:01:09.670Z,18.23
2018-05-24T11:03:37.063Z,18.67
2018-05-24T11:06:04.450Z,19.57
2018-05-24T11:08:31.848Z,18.10
2018-05-24T11:10:59.240Z,19.47
2018-05-24T11:13:26.636Z,18.13
2018-05-24T11:15:54.035Z,17.97
2018-05-24T11:18:21.430Z,17.53
2018-05-24T11:20:48.819Z,17.37
2018-05-24T11:23:16.211Z,19.17
2018-05-24T11:25:43.654Z,18.27
2018-05-24T11:28:11.055Z,19.20
2018-05-24T11:30:38.444Z,18.57
2018-05-24T11:33:05.838Z,19.50
2018-05-24T11:35:33.229Z,19.10
2018-05-24T11:38:00.618Z,19.40
2018-05-24T11:40:28.007Z,19.23
2018-05-24T11:42:55.853Z,19.50
2018-05-24T11:45:23.256Z,19.27
2018-05-24T11:47:50.699Z,19.27
2018-05-24T11:50:18.091Z,18.83
2018-05-24T11:52:45.479Z,17.90
2018-05-24T11:55:12.875Z,17.90
2018-05-24T11:57:40.269Z,17.10
2018-05-24T12:00:07.667Z,16.47
2018-05-24T12:02:35.055Z,16.57
2018-05-24T12:05:02.443Z,17.00
2018-05-24T12:07:29.843Z,16.60
2018-05-24T12:09:57.231Z,17.30
2018-05-24T12:12:24.667Z,17.73
2018-05-24T12:14:52.098Z,17.07
2018-05-24T12:17:19.491Z,17.70
2018-05-24T12:19:47.098Z,17.87
2018-05-24T12:22:14.790Z,18.30
2018-05-24T12:24:42.185Z,16.73
2018-05-24T12:27:09.566Z,17.07
2018-05-24T12:29:36.960Z,17.23
2018-05-24T12:32:04.358Z,16.50
2018-05-24T12:34:31.761Z,16.37
2018-05-24T12:36:59.151Z,14.70
2018-05-24T12:39:26.544Z,17.20
2018-05-24T12:41:53.933Z,15.87
2018-05-24T12:44:21.331Z,16.27
2018-05-24T12:46:48.736Z,16.57
2018-05-24T12:49:16.588Z,16.70
2018-05-24T12:51:43.982Z,16.87
2018-05-24T12:54:11.370Z,16.43
2018-05-24T12:56:38.767Z,15.33
2018-05-24T12:59:06.148Z,16.60
2018-05-24T13:01:33.551Z,16.17
2018-05-24T13:04:00.977Z,16.07
2018-05-24T13:06:28.328Z,16.70
2018-05-24T13:08:55.715Z,15.70
2018-05-24T13:11:23.113Z,16.40
2018-05-24T13:13:50.503Z,16.73
2018-05-24T13:16:17.899Z,16.53
2018-05-24T13:18:45.299Z,16.87
2018-05-24T13:21:12.695Z,17.30
2018-05-24T13:23:40.091Z,16.93
2018-05-24T13:26:07.812Z,16.47
2018-05-24T13:28:35.206Z,17.73
2018-05-24T13:31:02.603Z,17.00
2018-05-24T13:33:29.999Z,16.10
2018-05-24T13:35:57.390Z,17.20
2018-05-24T13:38:24.811Z,16.20
2018-05-24T13:40:52.239Z,17.17
2018-05-24T13:43:19.639Z,18.87
2018-05-24T13:45:47.095Z,19.90
2018-05-24T13:48:14.511Z,17.90
2018-05-24T13:50:41.895Z,19.13
2018-05-24T13:53:09.276Z,17.67
2018-05-24T13:55:36.723Z,19.80
2018-05-24T13:58:04.118Z,19.03
2018-05-24T14:00:31.548Z,19.03
2018-05-24T14:02:58.931Z,19.63
2018-05-24T14:05:26.743Z,19.57
2018-05-24T14:07:54.131Z,19.70
2018-05-24T14:10:21.518Z,18.40
2018-05-24T14:12:48.907Z,18.37
2018-05-24T14:15:16.297Z,20.10
2018-05-24T14:17:43.690Z,19.77
2018-05-24T14:20:11.085Z,18.60
2018-05-24T14:22:38.479Z,20.00
2018-05-24T14:25:05.863Z,18.40
2018-05-24T14:27:33.266Z,18.83
2018-05-24T14:30:00.651Z,18.57
2018-05-24T14:32:28.034Z,19.97
2018-05-24T14:34:55.483Z,17.53
2018-05-24T14:37:22.870Z,20.07
2018-05-24T14:39:50.262Z,20.60
2018-05-24T14:42:17.650Z,18.97
2018-05-24T14:44:45.067Z,19.50
2018-05-24T14:47:12.450Z,19.77
2018-05-24T14:49:39.902Z,19.53
2018-05-24T14:52:07.303Z,19.83
2018-05-24T14:54:34.691Z,18.40
2018-05-24T14:57:02.098Z,19.07
2018-05-24T14:59:29.486Z,18.50
2018-05-24T15:01:56.907Z,20.43
2018-05-24T15:04:24.298Z,20.67
2018-05-24T15:06:51.688Z,18.93
2018-05-24T15:09:19.082Z,19.13
2018-05-24T15:11:46.479Z,18.87
2018-05-24T15:14:13.861Z,16.70
2018-05-24T15:16:41.304Z,19.00
2018-05-24T15:19:08.759Z,17.97
2018-05-24T15:21:36.148Z,17.63
2018-05-24T15:24:03.606Z,18.67
2018-05-24T15:26:31.112Z,19.10
2018-05-24T15:28:58.526Z,17.87
2018-05-24T15:31:26.115Z,17.10
2018-05-24T15:33:53.553Z,18.07
2018-05-24T15:36:20.988Z,17.70
2018-05-24T15:38:48.372Z,18.07
2018-05-24T15:41:15.758Z,15.83
2018-05-24T15:43:43.191Z,16.50
2018-05-24T15:46:10.539Z,16.87
2018-05-24T15:48:37.943Z,15.03
2018-05-24T15:51:05.435Z,15.90
2018-05-24T15:53:32.891Z,16.00
2018-05-24T15:56:00.278Z,15.30
2018-05-24T15:58:27.703Z,16.37
2018-05-24T16:00:55.102Z,16.97
2018-05-24T16:03:22.521Z,16.43
2018-05-24T16:05:49.918Z,15.70
2018-05-24T16:08:17.642Z,16.40
2018-05-24T16:10:46.006Z,15.70
2018-05-24T16:13:13.428Z,14.80
2018-05-24T16:15:40.820Z,15.47
2018-05-24T16:18:08.331Z,15.30
2018-05-24T16:20:35.757Z,13.90
2018-05-24T16:23:03.139Z,14.57
2018-05-24T16:25:30.558Z,14.93
2018-05-24T16:27:57.943Z,15.63
2018-05-24T16:30:25.335Z,15.33
2018-05-24T16:32:52.735Z,16.80
2018-05-24T16:35:20.127Z,15.53
2018-05-24T16:37:47.519Z,15.03
2018-05-24T16:40:14.906Z,14.90
2018-05-24T16:42:42.304Z,15.43
2018-05-24T16:45:10.145Z,13.70
2018-05-24T16:47:37.543Z,13.83
2018-05-24T16:50:04.936Z,15.67
2018-05-24T16:52:32.335Z,14.67
2018-05-24T16:54:59.726Z,15.13
2018-05-24T16:57:27.131Z,15.33
2018-05-24T16:59:54.523Z,14.67
2018-05-24T17:02:22.019Z,15.13
2018-05-24T17:04:49.467Z,14.67
2018-05-24T17:07:16.951Z,14.70
2018-05-24T17:09:44.382Z,15.07
2018-05-24T17:12:11.776Z,15.17
2018-05-24T17:14:39.186Z,14.97
2018-05-24T17:17:06.576Z,15.47
2018-05-24T17:19:33.971Z,15.37
2018-05-24T17:22:01.404Z,14.93
2018-05-24T17:24:28.820Z,15.00
2018-05-24T17:26:56.199Z,16.03
2018-05-24T17:29:23.599Z,15.70
2018-05-24T17:31:51.003Z,16.60
2018-05-24T17:34:18.378Z,19.07
2018-05-24T17:36:45.777Z,17.27
2018-05-24T17:39:13.159Z,16.00
2018-05-24T17:41:40.571Z,16.30
2018-05-24T17:44:07.976Z,15.97
2018-05-24T17:46:35.354Z,15.90
2018-05-24T17:49:02.744Z,15.57
2018-05-24T17:51:30.153Z,15.23
2018-05-24T17:53:57.545Z,14.40
2018-05-24T17:56:24.927Z,15.60
2018-05-24T17:58:52.326Z,15.97
2018-05-24T18:01:19.722Z,16.07
2018-05-24T18:03:47.127Z,18.07
2018-05-24T18:06:14.522Z,17.87
2018-05-24T18:08:41.916Z,17.80
2018-05-24T18:11:09.311Z,17.07
2018-05-24T18:13:36.729Z,17.37
2018-05-24T18:16:04.122Z,16.00
2018-05-24T18:18:31.515Z,16.90
2018-05-24T18:20:58.947Z,17.00
2018-05-24T18:23:26.349Z,18.33
2018-05-24T18:25:53.750Z,17.30
2018-05-24T18:28:21.142Z,18.43
2018-05-24T18:30:48.543Z,18.23
2018-05-24T18:33:15.935Z,18.77
2018-05-24T18:35:43.319Z,17.93
2018-05-24T18:38:10.715Z,19.60
2018-05-24T18:40:38.114Z,22.10
2018-05-24T18:43:05.524Z,19.37
2018-05-24T18:45:32.924Z,21.10
2018-05-24T18:48:00.303Z,20.50
2018-05-24T18:50:27.708Z,20.33
2018-05-24T18:52:55.280Z,18.93
2018-05-24T18:55:22.671Z,20.40
2018-05-24T18:57:50.059Z,19.33
2018-05-24T19:00:17.836Z,20.17
2018-05-24T19:02:45.206Z,18.80
2018-05-24T19:05:12.600Z,19.63
2018-05-24T19:07:39.987Z,18.63
2018-05-24T19:10:07.403Z,19.43
2018-05-24T19:12:34.793Z,21.23
2018-05-24T19:15:02.287Z,19.97
2018-05-24T19:17:29.682Z,18.10
2018-05-24T19:19:57.100Z,19.23
2018-05-24T19:22:24.500Z,20.03
2018-05-24T19:24:51.916Z,20.80
2018-05-24T19:27:19.357Z,20.50
2018-05-24T19:29:46.786Z,22.47
2018-05-24T19:32:14.212Z,22.37
2018-05-24T19:34:41.604Z,21.10
2018-05-24T19:37:09.012Z,21.43
2018-05-24T19:39:36.394Z,23.40
2018-05-24T19:42:03.812Z,22.07
2018-05-24T19:44:31.211Z,22.70
2018-05-24T19:46:58.591Z,22.17
2018-05-24T19:49:25.982Z,22.93
2018-05-24T19:51:53.367Z,22.30
2018-05-24T19:54:20.763Z,21.30
2018-05-24T19:56:48.146Z,23.30
2018-05-24T19:59:15.554Z,23.70
2018-05-24T20:01:42.963Z,22.30
2018-05-24T20:04:10.347Z,22.30
2018-05-24T20:06:37.746Z,23.93
2018-05-24T20:09:05.917Z,23.37
2018-05-24T20:11:33.307Z,23.70
2018-05-24T20:14:00.694Z,24.00
2018-05-24T20:16:28.087Z,23.10
2018-05-24T20:18:55.480Z,22.40
2018-05-24T20:21:22.881Z,23.20
2018-05-24T20:23:50.263Z,22.83
2018-05-24T20:26:17.655Z,23.90
2018-05-24T20:28:45.043Z,23.80
2018-05-24T20:31:12.435Z,23.83
2018-05-24T20:33:39.831Z,24.20
2018-05-24T20:36:07.223Z,23.30
2018-05-24T20:38:34.623Z,25.27
2018-05-24T20:41:02.027Z,23.63
2018-05-24T20:43:29.429Z,24.13
2018-05-24T20:45:56.875Z,26.33
2018-05-24T20:48:24.283Z,26.40
2018-05-24T20:50:51.671Z,25.60
2018-05-24T20:53:19.064Z,25.83
2018-05-24T20:55:46.451Z,24.50
2018-05-24T20:58:13.844Z,25.67
2018-05-24T21:00:41.238Z,24.33
2018-05-24T21:03:08.631Z,24.87
2018-05-24T21:05:36.234Z,26.03
2018-05-24T21:08:03.619Z,26.47
2018-05-24T21:10:31.019Z,25.27
2018-05-24T21:12:58.402Z,26.23
2018-05-24T21:15:25.955Z,27.00
2018-05-24T21:17:53.363Z,26.50
2018-05-24T21:20:20.768Z,27.30
2018-05-24T21:22:48.148Z,26.17
2018-05-24T21:25:15.539Z,26.13
2018-05-24T21:27:42.950Z,26.33
2018-05-24T21:30:10.392Z,26.37
2018-05-24T21:32:38.123Z,26.43
2018-05-24T21:35:05.514Z,28.87
2018-05-24T21:37:32.923Z,25.70
2018-05-24T21:40:00.310Z,25.10
2018-05-24T21:42:27.783Z,25.20
2018-05-24T21:44:55.208Z,25.10
2018-05-24T21:47:22.588Z,26.00
2018-05-24T21:49:50.023Z,25.67
2018-05-24T21:52:17.415Z,26.23
2018-05-24T21:54:44.807Z,28.03
2018-05-24T21:57:12.202Z,25.40
2018-05-24T21:59:39.587Z,26.13
2018-05-24T22:02:07.009Z,27.40
2018-05-24T22:04:34.467Z,27.30
2018-05-24T22:07:01.867Z,25.80
2018-05-24T22:09:29.255Z,26.90
2018-05-24T22:11:56.664Z,25.07
2018-05-24T22:14:24.046Z,26.67
2018-05-24T22:16:51.446Z,25.73
2018-05-24T22:19:18.835Z,25.37
2018-05-24T22:21:46.222Z,25.07
2018-05-24T22:24:13.619Z,25.83
2018-05-24T22:26:41.002Z,26.43
2018-05-24T22:29:08.399Z,27.20
2018-05-24T22:31:35.790Z,27.50
2018-05-24T22:34:03.186Z,25.07
2018-05-24T22:36:30.576Z,24.87
2018-05-24T22:38:57.970Z,26.50
2018-05-24T22:41:25.371Z,26.63
2018-05-24T22:43:52.762Z,28.77
2018-05-24T22:46:20.155Z,27.53
2018-05-24T22:48:47.547Z,27.10
2018-05-24T22:51:14.942Z,28.50
2018-05-24T22:53:42.344Z,26.83
2018-05-24T22:56:09.723Z,27.73
2018-05-24T22:58:37.122Z,28.30
2018-05-24T23:01:04.511Z,26.57
2018-05-24T23:03:31.906Z,27.77
2018-05-24T23:05:59.295Z,27.03
2018-05-24T23:08:26.701Z,26.50
2018-05-24T23:10:54.087Z,26.60
2018-05-24T23:13:21.475Z,26.10
2018-05-24T23:15:48.867Z,28.03
2018-05-24T23:18:16.250Z,28.63
2018-05-24T23:20:43.649Z,27.83
2018-05-24T23:23:11.028Z,27.17
2018-05-24T23:25:38.410Z,27.30
2018-05-24T23:28:05.802Z,29.30
2018-05-24T23:30:33.202Z,28.07
2018-05-24T23:33:00.614Z,29.13
2018-05-24T23:35:28.006Z,28.80
2018-05-24T23:37:55.396Z,27.23
2018-05-24T23:40:22.795Z,28.40
2018-05-24T23:42:50.185Z,29.40
2018-05-24T23:45:17.567Z,27.90
2018-05-24T23:47:46.182Z,27.90
2018-05-24T23:50:13.578Z,31.53
2018-05-24T23:52:40.971Z,30.87
2018-05-24T23:55:08.358Z,29.50
2018-05-24T23:57:35.754Z,32.53
